Time;durP1;ratioP1;P1;durP2;ratioP2;P2;SDS_P1;SDS_P2;PMS_P1;PMS_P2;Temp;Humidity;BMP_temperature;BMP_pressure;BME280_temperature;BME280_humidity;BME280_pressure;Samples;Min_cycle;Max_cycle;Signal;HPM_P1;HPM_P2
2023/03/08 00:01:36;;;;;;;5.57;1.50;;;;;;;;;;5055694;28;20020;-69
2023/03/08 00:04:01;;;;;;;6.65;1.67;;;;;;;;;;5071910;28;20078;-69
2023/03/08 00:06:27;;;;;;;4.13;1.40;;;;;;;;;;5064372;28;20116;-69
2023/03/08 00:08:57;;;;;;;4.60;1.20;;;;;;;;;;5051346;28;20478;-69
2023/03/08 00:11:23;;;;;;;2.85;0.95;;;;;;;;;;5051981;28;20052;-68
2023/03/08 00:13:48;;;;;;;3.03;1.30;;;;;;;;;;5051958;28;20067;-69
2023/03/08 00:16:14;;;;;;;3.95;1.10;;;;;;;;;;5051901;28;20033;-68
2023/03/08 00:18:39;;;;;;;4.93;1.48;;;;;;;;;;5051531;28;20029;-68
2023/03/08 00:21:11;;;;;;;3.75;1.15;;;;;;;;;;5051727;28;20057;-68
2023/03/08 00:23:37;;;;;;;1.63;1.10;;;;;;;;;;5051916;28;20063;-68
2023/03/08 00:26:03;;;;;;;2.75;0.82;;;;;;;;;;5051961;28;20477;-69
2023/03/08 00:28:29;;;;;;;2.20;0.90;;;;;;;;;;5051704;28;20028;-68
2023/03/08 00:31:07;;;;;;;9.85;1.15;;;;;;;;;;5051582;28;20477;-68
2023/03/08 00:33:32;;;;;;;4.18;1.20;;;;;;;;;;5051765;28;20111;-68
2023/03/08 00:36:07;;;;;;;5.47;1.50;;;;;;;;;;5051570;28;20395;-68
2023/03/08 00:38:35;;;;;;;5.85;0.90;;;;;;;;;;5050444;28;20489;-68
2023/03/08 00:41:00;;;;;;;3.88;1.10;;;;;;;;;;5054000;28;20466;-68
2023/03/08 00:43:26;;;;;;;4.25;0.90;;;;;;;;;;5054755;28;20029;-68
2023/03/08 00:45:52;;;;;;;4.32;1.10;;;;;;;;;;5055030;28;20540;-69
2023/03/08 00:48:17;;;;;;;4.82;1.20;;;;;;;;;;5055478;28;20112;-69
2023/03/08 00:50:43;;;;;;;1.58;1.05;;;;;;;;;;5055215;28;20075;-69
2023/03/08 00:53:09;;;;;;;6.90;1.60;;;;;;;;;;5055126;28;20087;-69
2023/03/08 00:55:34;;;;;;;3.35;1.27;;;;;;;;;;5041317;28;20038;-68
2023/03/08 00:57:59;;;;;;;2.85;1.40;;;;;;;;;;5035063;28;20032;-68
2023/03/08 01:00:25;;;;;;;4.80;1.50;;;;;;;;;;5033809;28;20356;-68
2023/03/08 01:02:51;;;;;;;2.95;1.25;;;;;;;;;;5035193;28;20124;-68
2023/03/08 01:05:16;;;;;;;2.67;1.15;;;;;;;;;;5035087;28;20435;-68
2023/03/08 01:07:42;;;;;;;6.97;1.35;;;;;;;;;;5052886;28;20051;-68
2023/03/08 01:10:08;;;;;;;3.10;1.13;;;;;;;;;;5054002;28;20025;-68
2023/03/08 01:12:34;;;;;;;3.33;1.15;;;;;;;;;;5053111;28;20017;-69
2023/03/08 01:15:00;;;;;;;2.60;1.30;;;;;;;;;;5053337;28;20020;-68
2023/03/08 01:17:26;;;;;;;6.03;1.10;;;;;;;;;;5053470;28;20029;-68
2023/03/08 01:19:52;;;;;;;5.88;1.83;;;;;;;;;;5053123;28;20074;-68
2023/03/08 01:22:17;;;;;;;4.75;1.20;;;;;;;;;;5053544;28;20134;-68
2023/03/08 01:24:47;;;;;;;5.38;1.30;;;;;;;;;;5053067;28;20452;-68
2023/03/08 01:29:47;;;;;;;5.75;1.35;;;;;;;;;;5345891;23;20778;-68
2023/03/08 01:32:13;;;;;;;8.95;1.42;;;;;;;;;;4990297;28;20053;-68
2023/03/08 01:34:38;;;;;;;6.45;1.38;;;;;;;;;;4986727;28;20483;-69
2023/03/08 01:37:04;;;;;;;8.07;1.60;;;;;;;;;;4986105;28;20022;-69
2023/03/08 01:39:30;;;;;;;2.00;1.27;;;;;;;;;;4985601;28;20034;-68
2023/03/08 01:41:56;;;;;;;5.55;1.20;;;;;;;;;;4982989;28;20102;-67
2023/03/08 01:44:22;;;;;;;5.40;1.30;;;;;;;;;;4982989;28;20027;-68
2023/03/08 01:46:48;;;;;;;3.33;1.20;;;;;;;;;;4987652;28;20029;-68
2023/03/08 01:49:32;;;;;;;4.03;1.00;;;;;;;;;;4984851;28;20030;-70
2023/03/08 01:52:08;;;;;;;9.18;1.30;;;;;;;;;;4984211;28;20023;-69
2023/03/08 01:54:50;;;;;;;5.97;1.23;;;;;;;;;;4982637;28;20496;-69
2023/03/08 01:57:18;;;;;;;7.07;1.25;;;;;;;;;;4984038;28;20089;-68
2023/03/08 01:59:46;;;;;;;3.42;1.00;;;;;;;;;;4984058;28;20084;-68
2023/03/08 02:02:11;;;;;;;5.47;1.30;;;;;;;;;;4982962;28;20368;-69
2023/03/08 02:04:38;;;;;;;4.85;1.58;;;;;;;;;;4987024;28;20018;-68
2023/03/08 02:07:03;;;;;;;6.05;1.40;;;;;;;;;;4983971;28;20027;-68
2023/03/08 02:09:29;;;;;;;3.40;1.25;;;;;;;;;;4982303;28;20027;-67
2023/03/08 02:11:59;;;;;;;3.45;1.48;;;;;;;;;;4984117;28;20101;-67
2023/03/08 02:14:25;;;;;;;6.07;1.50;;;;;;;;;;4984039;28;20064;-71
2023/03/08 02:16:51;;;;;;;4.53;1.20;;;;;;;;;;4981850;28;20479;-68
2023/03/08 02:19:26;;;;;;;3.40;1.20;;;;;;;;;;4986065;28;20126;-69
2023/03/08 02:21:51;;;;;;;4.97;1.40;;;;;;;;;;4982404;28;20030;-68
2023/03/08 02:24:20;;;;;;;11.98;1.60;;;;;;;;;;4984191;28;20018;-69
2023/03/08 02:26:46;;;;;;;6.47;1.48;;;;;;;;;;4983095;28;20053;-67
2023/03/08 02:29:11;;;;;;;2.42;1.20;;;;;;;;;;4982116;28;20506;-67
2023/03/08 02:31:37;;;;;;;4.55;1.40;;;;;;;;;;4986240;28;20026;-67
2023/03/08 02:34:02;;;;;;;3.38;1.25;;;;;;;;;;4982821;28;20491;-67
2023/03/08 02:36:28;;;;;;;5.95;1.20;;;;;;;;;;4982419;28;20483;-67
2023/03/08 02:38:53;;;;;;;6.28;1.40;;;;;;;;;;4982550;28;20113;-67
2023/03/08 02:41:19;;;;;;;4.25;1.40;;;;;;;;;;4981898;28;20030;-67
2023/03/08 02:43:44;;;;;;;12.65;1.92;;;;;;;;;;4975308;28;20027;-67
2023/03/08 02:46:13;;;;;;;6.82;1.50;;;;;;;;;;4974057;28;20031;-68
2023/03/08 02:48:39;;;;;;;5.10;1.20;;;;;;;;;;4972688;28;20089;-67
2023/03/08 02:51:04;;;;;;;3.88;1.30;;;;;;;;;;4973995;28;20031;-66
2023/03/08 02:53:30;;;;;;;4.95;1.30;;;;;;;;;;4973895;28;20030;-66
2023/03/08 02:55:55;;;;;;;6.55;1.30;;;;;;;;;;4973739;28;20110;-67
2023/03/08 02:58:21;;;;;;;5.43;1.83;;;;;;;;;;4973765;28;20118;-69
2023/03/08 03:00:46;;;;;;;5.88;1.38;;;;;;;;;;4973805;28;20027;-66
2023/03/08 03:03:12;;;;;;;2.92;1.13;;;;;;;;;;4973637;28;20464;-67
2023/03/08 03:05:44;;;;;;;3.30;1.33;;;;;;;;;;4990503;28;20030;-68
2023/03/08 03:08:10;;;;;;;4.50;1.27;;;;;;;;;;4992780;28;20065;-68
2023/03/08 03:10:36;;;;;;;2.63;1.00;;;;;;;;;;4992662;28;20034;-68
2023/03/08 03:13:02;;;;;;;3.20;1.30;;;;;;;;;;4992986;28;20030;-67
2023/03/08 03:15:27;;;;;;;5.22;1.75;;;;;;;;;;4993043;28;20105;-67
2023/03/08 03:17:53;;;;;;;4.60;2.30;;;;;;;;;;4992908;28;20026;-67
2023/03/08 03:20:19;;;;;;;3.58;2.05;;;;;;;;;;4993086;28;20074;-67
2023/03/08 03:22:45;;;;;;;3.88;1.77;;;;;;;;;;4993416;28;20034;-67
2023/03/08 03:25:11;;;;;;;5.85;1.38;;;;;;;;;;4993164;28;20029;-67
2023/03/08 03:27:37;;;;;;;6.63;1.83;;;;;;;;;;4993112;28;20404;-67
2023/03/08 03:30:03;;;;;;;5.82;1.65;;;;;;;;;;4993145;28;20371;-67
2023/03/08 03:32:29;;;;;;;6.32;1.80;;;;;;;;;;4980161;28;20069;-68
2023/03/08 03:34:54;;;;;;;3.42;1.40;;;;;;;;;;4973713;28;20059;-67
2023/03/08 03:37:20;;;;;;;7.60;1.48;;;;;;;;;;4973691;28;20030;-67
2023/03/08 03:39:46;;;;;;;3.25;1.60;;;;;;;;;;4973263;28;20027;-67
2023/03/08 03:42:11;;;;;;;5.85;1.70;;;;;;;;;;4973572;28;20484;-67
2023/03/08 03:44:37;;;;;;;7.95;1.80;;;;;;;;;;4973468;28;20073;-67
2023/03/08 03:47:02;;;;;;;7.55;2.13;;;;;;;;;;4973666;28;20035;-67
2023/03/08 03:49:28;;;;;;;3.65;1.80;;;;;;;;;;4973477;28;20375;-67
2023/03/08 03:51:53;;;;;;;5.55;1.88;;;;;;;;;;4973492;28;20034;-67
2023/03/08 03:54:19;;;;;;;7.75;1.80;;;;;;;;;;4973381;28;20035;-67
2023/03/08 03:56:44;;;;;;;4.78;1.63;;;;;;;;;;4973449;28;20110;-67
2023/03/08 03:59:09;;;;;;;4.28;1.85;;;;;;;;;;4973138;28;20384;-67
2023/03/08 04:01:35;;;;;;;4.60;1.73;;;;;;;;;;4973377;28;20031;-67
2023/03/08 04:04:00;;;;;;;3.45;1.58;;;;;;;;;;4973416;28;20035;-67
2023/03/08 04:06:31;;;;;;;5.25;1.67;;;;;;;;;;4973361;28;20033;-68
2023/03/08 04:08:59;;;;;;;4.72;1.80;;;;;;;;;;4973167;28;20034;-67
2023/03/08 04:11:27;;;;;;;3.90;1.88;;;;;;;;;;4973171;28;20042;-67
2023/03/08 04:13:53;;;;;;;4.20;1.67;;;;;;;;;;4973483;28;20023;-68
2023/03/08 04:16:22;;;;;;;5.45;1.92;;;;;;;;;;4974893;28;20114;-67
2023/03/08 04:18:51;;;;;;;3.30;1.70;;;;;;;;;;4981296;28;20041;-67
2023/03/08 04:21:16;;;;;;;7.47;1.55;;;;;;;;;;4996526;28;20437;-67
2023/03/08 04:23:41;;;;;;;3.47;1.70;;;;;;;;;;4996122;28;20054;-67
2023/03/08 04:26:07;;;;;;;4.20;1.65;;;;;;;;;;4996404;28;20058;-68
2023/03/08 04:28:33;;;;;;;2.88;1.60;;;;;;;;;;4996286;28;20053;-67
2023/03/08 04:30:59;;;;;;;4.82;1.92;;;;;;;;;;4995438;28;20031;-67
2023/03/08 04:33:25;;;;;;;6.45;1.98;;;;;;;;;;4976749;28;20026;-68
2023/03/08 04:35:51;;;;;;;3.65;1.65;;;;;;;;;;4976925;28;20357;-68
2023/03/08 04:38:17;;;;;;;5.95;1.88;;;;;;;;;;4976318;28;20161;-68
2023/03/08 04:41:05;;;;;;;3.25;1.73;;;;;;;;;;4976698;28;20039;-68
2023/03/08 04:43:34;;;;;;;5.43;1.80;;;;;;;;;;4976543;28;20035;-68
2023/03/08 04:46:00;;;;;;;3.95;1.73;;;;;;;;;;4976742;28;20038;-68
2023/03/08 04:48:26;;;;;;;4.28;2.00;;;;;;;;;;4976495;28;20392;-67
2023/03/08 04:50:54;;;;;;;4.00;1.67;;;;;;;;;;4976516;28;20030;-67
2023/03/08 04:53:19;;;;;;;5.20;2.20;;;;;;;;;;4976335;28;20030;-67
2023/03/08 04:55:45;;;;;;;6.35;2.35;;;;;;;;;;4976225;28;20027;-68
2023/03/08 04:58:10;;;;;;;3.15;2.22;;;;;;;;;;4976253;28;20056;-68
2023/03/08 05:00:36;;;;;;;5.60;2.70;;;;;;;;;;4976320;28;20038;-67
2023/03/08 05:03:01;;;;;;;11.23;2.28;;;;;;;;;;4976365;28;20022;-68
2023/03/08 05:05:26;;;;;;;3.20;1.70;;;;;;;;;;4976238;28;20065;-67
2023/03/08 05:07:52;;;;;;;5.80;2.42;;;;;;;;;;4975937;28;20065;-67
2023/03/08 05:10:18;;;;;;;4.32;1.92;;;;;;;;;;4976086;28;20114;-67
2023/03/08 05:12:43;;;;;;;8.07;2.38;;;;;;;;;;4976180;28;20041;-67
2023/03/08 05:15:09;;;;;;;7.40;3.58;;;;;;;;;;4976140;28;20058;-67
2023/03/08 05:17:35;;;;;;;7.15;2.63;;;;;;;;;;4975993;28;20039;-67
2023/03/08 05:20:01;;;;;;;10.45;3.17;;;;;;;;;;4976032;28;20037;-67
2023/03/08 05:22:26;;;;;;;7.25;2.72;;;;;;;;;;4975481;28;20534;-67
2023/03/08 05:24:52;;;;;;;4.78;2.67;;;;;;;;;;4975940;28;20043;-67
2023/03/08 05:27:17;;;;;;;7.78;2.92;;;;;;;;;;4975838;28;20511;-67
2023/03/08 05:29:42;;;;;;;7.05;3.25;;;;;;;;;;4975227;28;20046;-67
2023/03/08 05:32:12;;;;;;;6.72;3.72;;;;;;;;;;4975723;28;20166;-67
2023/03/08 05:34:37;;;;;;;8.00;3.17;;;;;;;;;;4975819;28;20071;-67
2023/03/08 05:37:03;;;;;;;7.65;3.42;;;;;;;;;;4975412;28;20081;-68
2023/03/08 05:39:29;;;;;;;9.27;3.17;;;;;;;;;;4975312;28;20388;-67
2023/03/08 05:41:55;;;;;;;9.40;3.10;;;;;;;;;;4975481;28;20171;-66
2023/03/08 05:44:20;;;;;;;5.95;3.30;;;;;;;;;;4975541;28;20034;-67
2023/03/08 05:46:49;;;;;;;5.30;3.35;;;;;;;;;;4975603;28;20027;-68
2023/03/08 05:49:14;;;;;;;5.93;3.28;;;;;;;;;;4975471;28;20447;-67
2023/03/08 05:51:40;;;;;;;6.10;3.55;;;;;;;;;;4975392;28;20066;-67
2023/03/08 05:54:05;;;;;;;7.20;3.47;;;;;;;;;;4975313;28;20380;-67
2023/03/08 05:56:31;;;;;;;6.07;3.60;;;;;;;;;;4975414;28;20019;-67
2023/03/08 05:58:56;;;;;;;7.28;3.72;;;;;;;;;;4975201;28;20086;-67
2023/03/08 06:01:24;;;;;;;10.43;3.63;;;;;;;;;;4975183;28;20027;-68
2023/03/08 06:03:51;;;;;;;8.38;3.63;;;;;;;;;;4974954;28;20057;-67
2023/03/08 06:06:18;;;;;;;5.32;3.80;;;;;;;;;;4975246;28;20476;-68
2023/03/08 06:08:44;;;;;;;6.65;4.00;;;;;;;;;;4975025;28;20026;-67
2023/03/08 06:11:09;;;;;;;8.60;3.67;;;;;;;;;;4974964;28;20527;-67
2023/03/08 06:13:35;;;;;;;10.85;4.13;;;;;;;;;;4974939;28;20031;-67
2023/03/08 06:16:01;;;;;;;4.97;3.67;;;;;;;;;;4974936;28;20039;-67
2023/03/08 06:18:28;;;;;;;7.43;3.63;;;;;;;;;;4973263;28;20391;-67
2023/03/08 06:20:57;;;;;;;7.82;4.07;;;;;;;;;;4974713;28;20031;-67
2023/03/08 06:23:24;;;;;;;7.80;3.95;;;;;;;;;;4974665;28;20050;-67
2023/03/08 06:25:49;;;;;;;7.40;4.35;;;;;;;;;;4974646;28;20026;-67
2023/03/08 06:28:15;;;;;;;4.82;3.30;;;;;;;;;;4974573;28;20033;-66
2023/03/08 06:30:40;;;;;;;7.72;4.10;;;;;;;;;;4974423;28;20113;-66
2023/03/08 06:33:05;;;;;;;6.68;4.05;;;;;;;;;;4992028;28;20057;-67
2023/03/08 06:35:31;;;;;;;6.47;4.13;;;;;;;;;;4993899;28;20030;-68
2023/03/08 06:37:56;;;;;;;11.20;3.88;;;;;;;;;;4993406;28;20030;-68
2023/03/08 06:40:22;;;;;;;6.57;4.05;;;;;;;;;;4993655;28;20096;-66
2023/03/08 06:42:47;;;;;;;9.63;4.05;;;;;;;;;;4993865;28;20030;-67
2023/03/08 06:45:13;;;;;;;8.95;5.78;;;;;;;;;;4993872;28;20556;-68
2023/03/08 06:47:38;;;;;;;7.28;3.90;;;;;;;;;;4993427;28;20464;-68
2023/03/08 06:50:04;;;;;;;8.45;4.20;;;;;;;;;;4993687;28;20476;-68
2023/03/08 06:52:36;;;;;;;7.38;4.05;;;;;;;;;;4993557;28;20058;-68
2023/03/08 06:55:02;;;;;;;11.23;4.32;;;;;;;;;;4993643;28;20117;-68
2023/03/08 06:57:27;;;;;;;13.05;5.57;;;;;;;;;;4993569;28;20104;-67
2023/03/08 06:59:53;;;;;;;8.50;4.63;;;;;;;;;;4993434;28;20038;-67
2023/03/08 07:02:18;;;;;;;7.80;5.50;;;;;;;;;;4992827;28;20072;-68
2023/03/08 07:04:44;;;;;;;4.32;2.97;;;;;;;;;;4993408;28;20029;-68
2023/03/08 07:07:09;;;;;;;8.10;3.63;;;;;;;;;;4993322;28;20030;-67
2023/03/08 07:09:34;;;;;;;9.93;3.67;;;;;;;;;;4993456;28;20072;-68
2023/03/08 07:12:00;;;;;;;3.53;2.72;;;;;;;;;;4993336;28;20034;-67
2023/03/08 07:14:25;;;;;;;6.93;3.00;;;;;;;;;;4993366;28;20023;-67
2023/03/08 07:16:51;;;;;;;5.95;3.00;;;;;;;;;;4993146;28;20018;-67
2023/03/08 07:19:16;;;;;;;5.60;3.05;;;;;;;;;;4993189;28;20023;-67
2023/03/08 07:21:43;;;;;;;5.75;2.30;;;;;;;;;;4992963;28;20038;-67
2023/03/08 07:24:09;;;;;;;6.43;4.07;;;;;;;;;;4993233;28;20058;-67
2023/03/08 07:26:35;;;;;;;7.57;3.25;;;;;;;;;;4993207;28;20033;-68
2023/03/08 07:29:00;;;;;;;6.43;2.53;;;;;;;;;;4992791;28;20050;-68
2023/03/08 07:31:27;;;;;;;5.45;2.78;;;;;;;;;;4988233;28;20030;-68
2023/03/08 07:33:54;;;;;;;6.85;2.80;;;;;;;;;;4973599;28;20043;-67
2023/03/08 07:36:19;;;;;;;7.78;2.90;;;;;;;;;;4973501;28;20476;-68
2023/03/08 07:38:45;;;;;;;6.70;3.15;;;;;;;;;;4973530;28;20065;-68
2023/03/08 07:41:11;;;;;;;5.30;3.03;;;;;;;;;;4973645;28;20023;-68
2023/03/08 07:43:36;;;;;;;4.35;2.80;;;;;;;;;;4973445;28;20034;-68
2023/03/08 07:46:03;;;;;;;5.63;2.97;;;;;;;;;;4973473;28;20032;-68
2023/03/08 07:48:29;;;;;;;4.80;3.33;;;;;;;;;;4973584;28;20059;-68
2023/03/08 07:50:58;;;;;;;5.00;3.75;;;;;;;;;;4976075;28;20034;-67
2023/03/08 07:53:24;;;;;;;7.55;4.03;;;;;;;;;;4977485;28;20034;-67
2023/03/08 07:55:49;;;;;;;6.40;3.58;;;;;;;;;;4977562;28;20353;-67
2023/03/08 07:58:14;;;;;;;4.45;2.65;;;;;;;;;;4977426;28;20042;-67
2023/03/08 08:00:40;;;;;;;6.80;2.40;;;;;;;;;;4977490;28;20045;-67
2023/03/08 08:03:05;;;;;;;6.45;2.78;;;;;;;;;;4977444;28;20029;-67
2023/03/08 08:05:31;;;;;;;5.47;2.63;;;;;;;;;;4977256;28;20110;-67
2023/03/08 08:07:56;;;;;;;4.18;2.75;;;;;;;;;;4986731;28;20360;-68
2023/03/08 08:10:22;;;;;;;4.25;2.72;;;;;;;;;;4996749;28;20478;-67
2023/03/08 08:12:47;;;;;;;6.13;3.13;;;;;;;;;;4996649;28;20367;-68
2023/03/08 08:15:13;;;;;;;5.78;2.38;;;;;;;;;;4996536;28;20058;-68
2023/03/08 08:17:38;;;;;;;6.25;2.53;;;;;;;;;;4996618;28;20113;-68
2023/03/08 08:20:06;;;;;;;6.72;3.17;;;;;;;;;;4997074;28;20034;-68
2023/03/08 08:22:34;;;;;;;5.18;3.17;;;;;;;;;;5000529;28;20030;-68
2023/03/08 08:25:00;;;;;;;4.25;2.95;;;;;;;;;;5007946;28;20023;-68
2023/03/08 08:27:25;;;;;;;5.35;3.40;;;;;;;;;;5007655;28;20076;-68
2023/03/08 08:29:50;;;;;;;4.00;2.83;;;;;;;;;;5000542;28;20507;-68
2023/03/08 08:32:16;;;;;;;8.65;3.05;;;;;;;;;;5014224;28;20030;-68
2023/03/08 08:34:41;;;;;;;4.68;3.10;;;;;;;;;;5010010;28;20022;-68
2023/03/08 08:37:07;;;;;;;3.53;2.33;;;;;;;;;;5005006;28;20037;-67
2023/03/08 08:39:32;;;;;;;3.45;2.30;;;;;;;;;;5002901;28;20026;-68
2023/03/08 08:41:57;;;;;;;4.40;2.83;;;;;;;;;;5011926;28;20033;-68
2023/03/08 08:44:23;;;;;;;5.75;3.03;;;;;;;;;;4999063;28;20017;-71
2023/03/08 08:46:48;;;;;;;7.85;3.80;;;;;;;;;;5008824;28;20447;-71
2023/03/08 08:49:14;;;;;;;6.10;2.72;;;;;;;;;;5005916;28;20483;-71
2023/03/08 08:51:39;;;;;;;7.72;3.72;;;;;;;;;;5002015;28;20113;-70
2023/03/08 08:54:05;;;;;;;6.07;3.15;;;;;;;;;;5010780;28;20033;-69
2023/03/08 08:56:30;;;;;;;4.75;2.70;;;;;;;;;;5001669;28;20014;-70
2023/03/08 08:58:58;;;;;;;5.20;2.60;;;;;;;;;;5004484;28;20434;-70
2023/03/08 09:01:26;;;;;;;4.32;2.20;;;;;;;;;;4994174;28;20070;-69
2023/03/08 09:03:52;;;;;;;4.43;2.63;;;;;;;;;;4992508;28;20068;-69
2023/03/08 09:06:20;;;;;;;5.03;3.17;;;;;;;;;;4995187;28;20026;-68
2023/03/08 09:08:51;;;;;;;5.97;3.10;;;;;;;;;;4994556;28;20154;-67
2023/03/08 09:11:16;;;;;;;;;;;;;;;;;;4995344;28;20022;-67
2023/03/08 09:13:41;;;;;;;4.03;2.72;;;;;;;;;;4994827;28;19985;-67
2023/03/08 09:16:36;;;;;;;3.30;2.60;;;;;;;;;;4994936;28;20025;-67
2023/03/08 09:19:03;;;;;;;8.27;2.40;;;;;;;;;;4994104;28;20039;-68
2023/03/08 09:21:30;;;;;;;4.05;2.33;;;;;;;;;;4991383;28;20431;-67
2023/03/08 09:23:58;;;;;;;4.28;2.47;;;;;;;;;;4994710;28;20085;-67
2023/03/08 09:26:24;;;;;;;8.80;2.58;;;;;;;;;;4994660;28;20038;-69
2023/03/08 09:28:49;;;;;;;4.70;3.00;;;;;;;;;;4992668;28;20088;-68
2023/03/08 09:31:16;;;;;;;8.35;2.60;;;;;;;;;;4995903;28;20079;-69
2023/03/08 09:33:50;;;;;;;5.30;2.55;;;;;;;;;;4993076;28;20049;-69
2023/03/08 09:36:16;;;;;;;6.78;2.55;;;;;;;;;;4994365;28;20046;-68
2023/03/08 09:38:42;;;;;;;4.93;2.80;;;;;;;;;;4994456;28;20125;-67
2023/03/08 09:41:21;;;;;;;4.53;2.85;;;;;;;;;;4994397;28;20117;-69
2023/03/08 09:43:55;;;;;;;3.95;1.88;;;;;;;;;;4992812;28;20124;-67
2023/03/08 09:46:32;;;;;;;5.50;2.00;;;;;;;;;;4993284;28;20030;-67
2023/03/08 09:48:59;;;;;;;7.28;2.38;;;;;;;;;;4991675;28;20026;-67
2023/03/08 09:51:35;;;;;;;6.13;2.50;;;;;;;;;;4993336;28;20054;-69
2023/03/08 09:54:13;;;;;;;9.90;2.40;;;;;;;;;;4993164;28;20023;-68
2023/03/08 09:56:46;;;;;;;5.85;2.20;;;;;;;;;;4993634;28;20025;-69
2023/03/08 09:59:20;;;;;;;9.82;2.60;;;;;;;;;;4994018;28;20132;-67
2023/03/08 10:01:57;;;;;;;5.05;2.60;;;;;;;;;;4994031;28;20034;-67
2023/03/08 10:04:42;;;;;;;6.80;2.22;;;;;;;;;;4993077;28;20041;-69
2023/03/08 10:07:55;;;;;;;6.13;2.65;;;;;;;;;;4993083;28;20448;-69
2023/03/08 10:10:25;;;;;;;7.55;2.35;;;;;;;;;;4988810;28;20042;-68
2023/03/08 10:13:11;;;;;;;5.78;2.20;;;;;;;;;;4989860;28;20031;-71
2023/03/08 10:15:42;;;;;;;10.00;2.40;;;;;;;;;;4982153;28;20038;-70
2023/03/08 10:18:29;;;;;;;6.38;2.15;;;;;;;;;;4979885;28;20190;-67
2023/03/08 10:20:57;;;;;;;9.60;2.10;;;;;;;;;;4982213;28;20047;-69
2023/03/08 10:23:24;;;;;;;7.18;3.33;;;;;;;;;;4980018;28;20030;-69
2023/03/08 10:25:50;;;;;;;5.65;2.00;;;;;;;;;;4978342;28;20097;-69
2023/03/08 10:28:21;;;;;;;9.23;2.03;;;;;;;;;;4982164;28;20034;-68
2023/03/08 10:30:57;;;;;;;4.05;1.90;;;;;;;;;;4982845;28;20543;-68
2023/03/08 10:33:26;;;;;;;5.15;1.70;;;;;;;;;;4980920;28;20039;-69
2023/03/08 10:36:18;;;;;;;3.92;2.13;;;;;;;;;;4980918;28;20050;-70
2023/03/08 10:38:56;;;;;;;7.57;2.42;;;;;;;;;;4980325;28;20031;-71
2023/03/08 10:41:21;;;;;;;6.30;1.92;;;;;;;;;;4979475;28;20027;-70
2023/03/08 10:43:52;;;;;;;4.95;2.03;;;;;;;;;;4979504;28;20049;-68
2023/03/08 10:46:27;;;;;;;5.80;2.50;;;;;;;;;;4981755;28;20096;-69
2023/03/08 10:48:53;;;;;;;1.90;1.40;;;;;;;;;;4979286;28;20034;-68
2023/03/08 10:51:24;;;;;;;3.60;1.85;;;;;;;;;;4979618;28;20041;-69
2023/03/08 10:54:03;;;;;;;5.47;2.22;;;;;;;;;;4991418;28;20042;-67
2023/03/08 10:56:45;;;;;;;5.88;1.92;;;;;;;;;;4990682;28;20026;-68
2023/03/08 10:59:36;;;;;;;6.45;2.10;;;;;;;;;;4992073;28;20088;-67
2023/03/08 11:02:13;;;;;;;10.63;2.10;;;;;;;;;;4991258;28;20116;-68
2023/03/08 11:04:55;;;;;;;5.93;1.90;;;;;;;;;;4989491;28;20046;-68
2023/03/08 11:07:25;;;;;;;13.52;4.75;;;;;;;;;;4991524;28;20539;-68
2023/03/08 11:09:50;;;;;;;8.25;2.10;;;;;;;;;;4992597;28;20046;-68
2023/03/08 11:12:24;;;;;;;6.00;1.90;;;;;;;;;;4992877;28;20134;-68
2023/03/08 11:14:50;;;;;;;6.97;2.00;;;;;;;;;;4991101;28;20042;-68
2023/03/08 11:17:38;;;;;;;4.93;2.42;;;;;;;;;;4992440;28;20030;-68
2023/03/08 11:20:17;;;;;;;6.60;2.00;;;;;;;;;;4990760;28;20148;-68
2023/03/08 11:22:48;;;;;;;5.07;1.98;;;;;;;;;;4990074;28;20034;-68
2023/03/08 11:25:34;;;;;;;3.90;1.88;;;;;;;;;;4992471;28;20494;-68
2023/03/08 11:28:13;;;;;;;5.03;2.00;;;;;;;;;;4990009;28;20435;-69
2023/03/08 11:30:52;;;;;;;8.50;2.35;;;;;;;;;;4991152;28;20115;-68
2023/03/08 11:33:46;;;;;;;4.82;1.80;;;;;;;;;;4994271;28;20514;-68
2023/03/08 11:36:30;;;;;;;6.10;1.90;;;;;;;;;;4989521;28;20121;-68
2023/03/08 11:39:03;;;;;;;3.88;1.95;;;;;;;;;;4991076;28;20517;-68
2023/03/08 11:41:31;;;;;;;7.63;2.50;;;;;;;;;;4989700;28;20027;-69
2023/03/08 11:44:31;;;;;;;2.90;1.90;;;;;;;;;;4992334;28;20041;-68
2023/03/08 11:47:20;;;;;;;6.22;2.60;;;;;;;;;;4991506;28;20085;-68
2023/03/08 11:50:10;;;;;;;4.45;2.10;;;;;;;;;;4980701;28;20562;-67
2023/03/08 11:52:53;;;;;;;9.88;2.10;;;;;;;;;;4981738;28;20503;-67
2023/03/08 11:55:58;;;;;;;4.38;2.10;;;;;;;;;;4982817;28;20495;-67
2023/03/08 11:58:29;;;;;;;5.13;1.77;;;;;;;;;;4959285;28;20166;-67
2023/03/08 12:01:00;;;;;;;3.83;1.98;;;;;;;;;;4981594;28;20042;-67
2023/03/08 12:03:30;;;;;;;5.35;1.85;;;;;;;;;;4978725;28;20082;-68
2023/03/08 12:06:08;;;;;;;9.27;2.45;;;;;;;;;;4979898;28;20113;-68
2023/03/08 12:08:41;;;;;;;11.30;2.53;;;;;;;;;;4978254;28;20035;-68
2023/03/08 12:11:22;;;;;;;9.52;2.97;;;;;;;;;;4982397;28;20030;-68
2023/03/08 12:14:12;;;;;;;4.50;1.85;;;;;;;;;;4979651;28;20113;-68
2023/03/08 12:16:56;;;;;;;9.43;2.33;;;;;;;;;;4981874;28;20081;-68
2023/03/08 12:19:30;;;;;;;6.32;1.92;;;;;;;;;;4979115;28;20130;-68
2023/03/08 12:22:22;;;;;;;9.75;2.30;;;;;;;;;;4981280;28;20035;-68
2023/03/08 12:25:19;;;;;;;7.18;2.40;;;;;;;;;;4978717;28;20042;-68
2023/03/08 12:27:59;;;;;;;5.03;1.77;;;;;;;;;;4986229;28;20491;-68
2023/03/08 12:30:34;;;;;;;5.28;1.67;;;;;;;;;;4990570;28;20046;-68
2023/03/08 12:33:03;;;;;;;3.47;1.60;;;;;;;;;;4993935;28;20039;-68
2023/03/08 12:35:32;;;;;;;9.48;2.30;;;;;;;;;;4988613;28;20157;-68
2023/03/08 12:38:14;;;;;;;6.03;2.08;;;;;;;;;;4995658;28;20395;-68
2023/03/08 12:40:43;;;;;;;7.75;2.10;;;;;;;;;;4995516;28;20038;-68
2023/03/08 12:43:13;;;;;;;4.72;1.65;;;;;;;;;;4995623;28;20169;-68
2023/03/08 12:45:42;;;;;;;5.40;1.73;;;;;;;;;;4993887;28;20117;-68
2023/03/08 12:48:26;;;;;;;3.78;1.92;;;;;;;;;;4995262;28;20027;-68
2023/03/08 12:51:18;;;;;;;4.65;1.75;;;;;;;;;;4993423;28;20069;-68
2023/03/08 12:53:49;;;;;;;8.52;2.67;;;;;;;;;;4994141;28;20040;-67
2023/03/08 12:56:23;;;;;;;7.60;2.22;;;;;;;;;;4995283;28;20041;-68
2023/03/08 12:58:53;;;;;;;5.05;1.90;;;;;;;;;;4992670;28;20026;-68
2023/03/08 13:01:33;;;;;;;8.93;1.92;;;;;;;;;;4995071;28;20129;-68
2023/03/08 13:03:58;;;;;;;7.07;2.50;;;;;;;;;;4995327;28;20054;-68
2023/03/08 13:06:48;;;;;;;4.88;2.13;;;;;;;;;;4994837;28;20137;-68
2023/03/08 13:09:45;;;;;;;17.77;2.83;;;;;;;;;;4994674;28;20479;-68
2023/03/08 13:12:40;;;;;;;6.93;2.50;;;;;;;;;;4994078;28;20061;-67
2023/03/08 13:15:16;;;;;;;11.65;2.92;;;;;;;;;;4972449;28;20043;-68
2023/03/08 13:17:48;;;;;;;4.97;1.63;;;;;;;;;;4971208;28;20043;-69
2023/03/08 13:20:23;;;;;;;3.35;1.77;;;;;;;;;;4970973;28;20054;-69
2023/03/08 13:23:19;;;;;;;9.00;2.10;;;;;;;;;;4973008;28;20030;-68
2023/03/08 13:26:02;;;;;;;9.32;1.90;;;;;;;;;;4972851;28;20081;-68
2023/03/08 13:28:34;;;;;;;10.10;2.33;;;;;;;;;;4972785;28;20054;-68
2023/03/08 13:31:23;;;;;;;6.60;2.60;;;;;;;;;;4972715;28;20050;-68
2023/03/08 13:33:54;;;;;;;9.50;2.17;;;;;;;;;;4957601;28;20054;-68
2023/03/08 13:36:24;;;;;;;11.68;1.92;;;;;;;;;;4972886;28;20031;-68
2023/03/08 13:39:19;;;;;;;11.00;3.17;;;;;;;;;;4972884;28;20081;-68
2023/03/08 13:41:46;;;;;;;9.88;3.20;;;;;;;;;;4973484;28;20050;-68
2023/03/08 13:44:25;;;;;;;8.55;3.05;;;;;;;;;;4973559;28;20027;-68
2023/03/08 13:46:56;;;;;;;8.93;2.20;;;;;;;;;;4972931;28;20447;-68
2023/03/08 13:49:35;;;;;;;7.65;3.25;;;;;;;;;;4972753;28;20546;-68
2023/03/08 13:52:09;;;;;;;13.85;3.33;;;;;;;;;;4984088;28;20041;-67
2023/03/08 13:54:41;;;;;;;13.30;3.28;;;;;;;;;;4994949;28;20034;-68
2023/03/08 13:57:18;;;;;;;7.15;2.92;;;;;;;;;;4994783;28;20022;-68
2023/03/08 13:59:49;;;;;;;8.77;2.75;;;;;;;;;;4994706;28;20030;-68
2023/03/08 14:02:32;;;;;;;;;;;;;;;;;;4993958;28;20089;-68
2023/03/08 14:04:58;;;;;;;9.55;2.75;;;;;;;;;;4994550;28;19916;-68
2023/03/08 14:07:29;;;;;;;10.18;2.40;;;;;;;;;;4994581;28;20030;-68
2023/03/08 14:09:55;;;;;;;3.65;1.73;;;;;;;;;;4994632;28;20061;-68
2023/03/08 14:12:28;;;;;;;13.02;2.85;;;;;;;;;;4994736;28;20034;-68
2023/03/08 14:14:57;;;;;;;7.68;2.17;;;;;;;;;;4994444;28;20034;-69
2023/03/08 14:17:28;;;;;;;5.97;2.50;;;;;;;;;;4994197;28;20026;-67
2023/03/08 14:19:56;;;;;;;20.00;4.45;;;;;;;;;;4993492;28;20062;-68
2023/03/08 14:22:24;;;;;;;16.75;5.22;;;;;;;;;;4993813;28;20073;-68
2023/03/08 14:24:54;;;;;;;27.35;10.15;;;;;;;;;;4993992;28;20026;-68
2023/03/08 14:27:20;;;;;;;10.07;3.03;;;;;;;;;;4993852;28;20068;-68
2023/03/08 14:29:46;;;;;;;19.67;3.17;;;;;;;;;;4993970;28;20461;-68
2023/03/08 14:32:11;;;;;;;4.00;2.22;;;;;;;;;;5004365;28;20486;-68
2023/03/08 14:34:38;;;;;;;7.57;2.70;;;;;;;;;;5013630;28;20061;-68
2023/03/08 14:37:26;;;;;;;12.30;2.40;;;;;;;;;;5013528;28;20025;-68
2023/03/08 14:39:54;;;;;;;6.50;2.00;;;;;;;;;;5013687;28;20501;-68
2023/03/08 14:42:25;;;;;;;54.75;21.40;;;;;;;;;;5013338;28;20026;-69
2023/03/08 14:44:56;;;;;;;21.95;3.92;;;;;;;;;;5013641;28;20136;-69
2023/03/08 14:47:26;;;;;;;6.38;2.55;;;;;;;;;;5012103;28;20030;-68
2023/03/08 14:50:03;;;;;;;12.73;3.05;;;;;;;;;;5012709;28;20112;-67
2023/03/08 14:52:32;;;;;;;7.03;2.25;;;;;;;;;;5012815;28;20343;-67
2023/03/08 14:54:57;;;;;;;5.53;2.10;;;;;;;;;;5012466;28;20037;-67
2023/03/08 14:57:25;;;;;;;7.03;2.65;;;;;;;;;;5012562;28;20379;-67
2023/03/08 14:59:52;;;;;;;9.10;4.90;;;;;;;;;;5012338;28;20426;-67
2023/03/08 15:02:18;;;;;;;8.15;4.18;;;;;;;;;;5012793;28;20046;-68